Time;durP1;ratioP1;P1;durP2;ratioP2;P2;SDS_P1;SDS_P2;PMS_P1;PMS_P2;Temp;Humidity;BMP_temperature;BMP_pressure;BME280_temperature;BME280_humidity;BME280_pressure;Samples;Min_cycle;Max_cycle;Signal;HPM_P1;HPM_P2
2022/12/27 05:14:16;;;;;;;15.27;11.20;;;3.40;93.40;;;;;;5027402;28;20223;-92
2022/12/27 05:17:03;;;;;;;13.33;12.17;;;3.40;93.70;;;;;;4995512;28;20204;-92
2022/12/27 05:19:56;;;;;;;;;;;;;;;;;;;;;
2022/12/27 07:01:25;;;;;;;26.00;11.87;;;3.50;93.10;;;;;;5038320;28;20241;-93
2022/12/27 07:03:56;;;;;;;23.60;12.80;;;3.60;93.10;;;;;;5022755;28;20160;-93
2022/12/27 07:06:38;;;;;;;15.33;11.77;;;3.50;93.20;;;;;;5005217;28;20178;-93
2022/12/27 07:09:43;;;;;;;13.87;12.10;;;3.50;93.30;;;;;;5010333;28;20181;-93
2022/12/27 07:12:41;;;;;;;15.57;12.93;;;3.50;93.00;;;;;;5012151;28;20181;-93
2022/12/27 07:16:21;;;;;;;21.03;11.80;;;3.50;93.10;;;;;;4991880;28;20208;-93
2022/12/27 07:19:32;;;;;;;13.30;11.97;;;3.50;93.00;;;;;;5030496;28;20177;-93
2022/12/27 07:23:17;;;;;;;;;;;;;;;;;;;;;
2022/12/27 07:51:31;;;;;;;17.67;10.80;;;3.60;91.90;;;;;;5044814;28;20231;-92
2022/12/27 08:15:10;;;;;;;12.63;11.27;;;3.70;92.30;;;;;;5038829;28;20224;-91
2022/12/27 08:17:35;;;;;;;13.33;11.97;;;3.70;92.40;;;;;;5014150;28;20190;-92
2022/12/27 08:20:21;;;;;;;19.63;12.40;;;3.70;92.40;;;;;;5013187;28;20173;-94
2022/12/27 08:22:46;;;;;;;18.73;12.73;;;3.70;92.40;;;;;;4989381;28;20188;-91
2022/12/27 08:25:57;;;;;;;;;;;;;;;;;;;;;
2022/12/27 08:28:54;;;;;;;18.33;12.20;;;3.70;92.70;;;;;;5021564;28;20210;-93
2022/12/27 08:40:34;;;;;;;16.30;11.77;;;3.90;92.70;;;;;;5035577;28;20742;-92
2022/12/27 08:50:26;;;;;;;;;;;;;;;;;;;;;
2022/12/27 08:53:47;;;;;;;16.47;11.70;;;4.00;92.60;;;;;;5031558;28;20209;-92
2022/12/27 09:19:29;;;;;;;18.37;11.40;;;4.00;91.90;;;;;;5041338;28;20220;-92
2022/12/27 09:21:58;;;;;;;15.73;11.30;;;4.00;92.10;;;;;;5023843;28;20166;-91
2022/12/27 09:24:24;;;;;;;18.73;15.57;;;4.00;92.10;;;;;;5018649;28;20206;-91
2022/12/27 09:26:56;;;;;;;15.60;14.30;;;4.00;92.30;;;;;;5006170;28;20182;-92
2022/12/27 09:29:35;;;;;;;23.63;15.40;;;4.00;92.20;;;;;;5003332;28;20176;-92
2022/12/27 10:30:12;;;;;;;14.93;13.10;;;4.70;89.10;;;;;;5042454;28;20223;-94
2022/12/27 11:04:59;;;;;;;17.80;9.47;;;5.40;87.90;;;;;;2956228;22;20262;-93
2022/12/27 11:07:36;;;;;;;12.93;9.27;;;5.60;87.50;;;;;;5019254;28;20248;-93
2022/12/27 11:10:16;;;;;;;20.83;10.23;;;5.70;87.00;;;;;;5014883;28;20204;-93
2022/12/27 11:20:33;;;;;;;12.47;9.00;;;6.00;86.30;;;;;;5014813;28;20721;-92
2022/12/27 11:23:02;;;;;;;11.77;9.43;;;6.00;86.30;;;;;;5017057;28;20164;-91
2022/12/27 11:25:29;;;;;;;13.53;9.73;;;5.90;86.40;;;;;;5006235;28;20198;-91
2022/12/27 11:28:33;;;;;;;15.67;10.30;;;5.90;85.70;;;;;;4998588;28;20280;-91
2022/12/27 11:31:34;;;;;;;11.73;9.50;;;5.90;85.40;;;;;;4979484;28;20209;-91
2022/12/27 11:34:26;;;;;;;20.93;9.17;;;5.90;85.30;;;;;;4983368;28;20189;-91
2022/12/27 11:37:14;;;;;;;14.73;11.07;;;5.90;85.00;;;;;;4997582;28;20166;-90
2022/12/27 11:39:50;;;;;;;12.17;10.27;;;6.00;85.90;;;;;;4997467;28;20173;-92
2022/12/27 11:43:00;;;;;;;;;;;;;;;;;;;;;
2022/12/27 11:45:43;;;;;;;18.03;10.00;;;6.00;85.70;;;;;;4989124;28;20292;-92
2022/12/27 11:48:17;;;;;;;17.17;9.87;;;6.10;85.70;;;;;;4994427;28;20206;-92
2022/12/27 11:51:25;;;;;;;12.63;9.63;;;6.10;85.50;;;;;;5000524;28;20197;-92
2022/12/27 11:54:29;;;;;;;17.87;10.37;;;6.20;86.00;;;;;;4976786;28;20186;-94
2022/12/27 11:57:13;;;;;;;26.83;10.63;;;6.10;85.20;;;;;;4995577;28;20189;-91
2022/12/27 11:59:52;;;;;;;15.53;9.73;;;6.20;85.00;;;;;;4994195;28;20193;-92
2022/12/27 12:02:55;;;;;;;15.20;9.80;;;6.20;85.10;;;;;;5002002;28;20201;-91
2022/12/27 12:06:22;;;;;;;13.17;9.23;;;6.20;84.80;;;;;;5001514;28;20205;-92
2022/12/27 12:09:06;;;;;;;11.40;9.67;;;6.20;84.70;;;;;;4928495;29;20179;-92
2022/12/27 12:12:09;;;;;;;13.17;9.50;;;5.90;85.30;;;;;;5003180;28;20198;-92
2022/12/27 12:15:04;;;;;;;14.97;9.63;;;5.90;85.80;;;;;;5002582;28;20202;-92
2022/12/27 12:20:33;;;;;;;17.33;10.13;;;5.80;85.20;;;;;;5027258;23;20224;-91
2022/12/27 12:23:05;;;;;;;14.13;8.87;;;5.80;85.40;;;;;;5024930;28;20223;-94
2022/12/27 12:25:51;;;;;;;19.13;9.60;;;5.70;85.30;;;;;;5024038;28;20204;-94
2022/12/27 12:28:38;;;;;;;13.40;9.03;;;5.80;85.10;;;;;;5020542;28;20176;-94
2022/12/27 12:31:18;;;;;;;12.73;8.60;;;5.90;85.10;;;;;;5019261;28;20212;-94
2022/12/27 12:34:35;;;;;;;11.40;9.27;;;5.90;85.60;;;;;;5023125;28;20236;-95
2022/12/27 12:37:26;;;;;;;18.00;9.73;;;5.90;85.00;;;;;;4990495;28;20181;-92
2022/12/27 12:40:29;;;;;;;18.30;9.77;;;5.80;85.50;;;;;;5028548;28;20165;-92
2022/12/27 12:43:42;;;;;;;;;;;;;;;;;;;;;
2022/12/27 12:47:25;;;;;;;;;;;;;;;;;;;;;
2022/12/27 12:50:35;;;;;;;18.50;9.60;;;5.70;85.00;;;;;;4988408;28;20209;-91
2022/12/27 12:53:05;;;;;;;21.20;9.33;;;5.60;84.60;;;;;;4968238;28;20183;-91
2022/12/27 12:56:08;;;;;;;10.97;8.93;;;5.60;84.30;;;;;;4968792;28;20229;-91
2022/12/27 12:59:20;;;;;;;16.17;9.40;;;5.50;84.20;;;;;;4965138;28;20189;-92
2022/12/27 13:02:12;;;;;;;17.20;9.77;;;5.50;84.30;;;;;;4963598;28;20276;-91
2022/12/27 13:05:10;;;;;;;16.33;9.37;;;5.50;84.50;;;;;;4969232;28;20225;-92
2022/12/27 13:07:57;;;;;;;18.30;10.00;;;5.40;84.60;;;;;;4966651;28;20174;-91
2022/12/27 13:10:40;;;;;;;15.70;9.63;;;5.40;84.30;;;;;;4982767;28;20240;-92
2022/12/27 13:13:40;;;;;;;19.20;9.40;;;5.40;84.50;;;;;;5002280;28;20174;-93
2022/12/27 13:16:45;;;;;;;13.83;9.83;;;5.30;84.70;;;;;;5001926;28;20206;-92
2022/12/27 13:19:42;;;;;;;17.17;9.03;;;5.30;85.60;;;;;;5002231;28;20161;-92
2022/12/27 13:22:53;;;;;;;9.23;8.30;;;5.30;85.60;;;;;;5002023;28;20195;-92
2022/12/27 13:25:50;;;;;;;16.03;8.80;;;5.30;85.20;;;;;;5000469;28;20229;-92
2022/12/27 13:28:47;;;;;;;16.63;9.77;;;5.30;85.10;;;;;;5000883;28;20166;-92
2022/12/27 13:31:46;;;;;;;15.57;9.40;;;5.30;85.40;;;;;;5001122;28;20201;-92
2022/12/27 13:34:44;;;;;;;16.33;9.43;;;5.30;85.40;;;;;;5001109;28;20678;-92
2022/12/27 13:37:41;;;;;;;13.33;8.93;;;5.20;85.60;;;;;;5017105;28;20185;-91
2022/12/27 13:40:47;;;;;;;17.60;10.00;;;5.30;85.40;;;;;;5001622;28;20178;-90
2022/12/27 13:43:40;;;;;;;12.83;8.80;;;5.20;85.60;;;;;;5001020;28;20192;-92
2022/12/27 13:46:23;;;;;;;17.63;9.80;;;5.20;85.90;;;;;;4999228;28;20227;-92
2022/12/27 13:49:00;;;;;;;12.97;9.10;;;5.20;85.90;;;;;;5000185;28;20174;-92
2022/12/27 13:51:43;;;;;;;22.50;10.33;;;5.20;85.70;;;;;;5001188;28;20202;-91
2022/12/27 13:54:29;;;;;;;23.20;9.80;;;5.10;86.00;;;;;;4998618;28;20188;-93
2022/12/27 13:57:26;;;;;;;12.90;8.60;;;5.20;86.00;;;;;;4999653;28;20177;-91
2022/12/27 14:00:16;;;;;;;20.47;9.67;;;5.10;86.30;;;;;;4998788;28;20231;-92
2022/12/27 14:03:19;;;;;;;17.93;9.20;;;5.10;86.40;;;;;;4998948;28;20181;-91
2022/12/27 14:06:09;;;;;;;13.83;10.07;;;4.90;87.00;;;;;;4998123;28;20203;-92
2022/12/27 14:08:49;;;;;;;16.87;8.97;;;5.00;87.10;;;;;;4998184;28;20185;-92
2022/12/27 14:11:44;;;;;;;16.20;8.40;;;4.90;87.10;;;;;;4997153;28;20201;-91
2022/12/27 14:14:14;;;;;;;19.40;8.80;;;5.00;86.90;;;;;;4979572;28;20535;-92
2022/12/27 14:16:59;;;;;;;18.00;9.30;;;4.90;86.70;;;;;;4997113;28;20174;-92
2022/12/27 14:19:27;;;;;;;15.20;9.53;;;5.00;86.70;;;;;;4997311;28;20183;-92
2022/12/27 14:22:28;;;;;;;15.83;9.50;;;4.90;86.80;;;;;;4998204;28;20188;-92
2022/12/27 14:25:35;;;;;;;11.53;9.23;;;4.90;87.00;;;;;;5000140;28;20690;-91
2022/12/27 14:28:45;;;;;;;15.73;9.70;;;4.90;87.00;;;;;;4978434;28;20197;-93
2022/12/27 14:31:41;;;;;;;17.10;9.57;;;4.90;87.00;;;;;;5012746;28;20273;-93
2022/12/27 14:34:07;;;;;;;15.07;9.10;;;4.90;87.10;;;;;;5014110;28;20209;-93
2022/12/27 14:37:00;;;;;;;9.57;8.47;;;4.80;87.30;;;;;;5012369;28;20188;-93
2022/12/27 14:43:16;;;;;;;17.93;8.97;;;4.80;87.20;;;;;;4953152;28;20175;-92
2022/12/27 15:07:06;;;;;;;14.30;12.03;;;4.50;88.00;;;;;;5088782;22;20261;-94
2022/12/27 15:10:09;;;;;;;26.20;14.33;;;4.60;88.10;;;;;;5025033;28;20192;-94
2022/12/27 15:13:15;;;;;;;17.30;12.30;;;4.70;88.10;;;;;;5029130;28;20195;-94
2022/12/27 15:15:44;;;;;;;13.07;10.53;;;4.60;88.30;;;;;;5026401;28;20210;-93
2022/12/27 15:18:34;;;;;;;14.67;10.23;;;4.60;88.60;;;;;;5020933;28;20222;-93
2022/12/27 15:21:44;;;;;;;23.87;11.50;;;4.60;88.40;;;;;;5023600;28;20169;-93
2022/12/27 15:24:46;;;;;;;13.23;10.97;;;4.60;88.60;;;;;;5012068;28;20290;-93
2022/12/27 15:27:37;;;;;;;23.10;10.87;;;4.60;88.80;;;;;;5022803;28;20175;-93
2022/12/27 15:30:24;;;;;;;18.53;10.97;;;4.50;88.90;;;;;;5016692;28;20176;-92
2022/12/27 15:32:55;;;;;;;17.90;11.07;;;4.60;89.10;;;;;;5017231;28;20192;-92
2022/12/27 15:35:31;;;;;;;12.67;10.53;;;4.60;89.10;;;;;;5026535;28;20208;-94
2022/12/27 15:38:15;;;;;;;29.10;10.60;;;4.60;89.10;;;;;;5031158;28;20183;-93
2022/12/27 15:43:34;;;;;;;13.80;10.27;;;4.60;89.00;;;;;;5270689;22;20240;-92
2022/12/27 15:46:48;;;;;;;;;;;;;;;;;;;;;
2022/12/27 15:53:14;;;;;;;17.50;10.57;;;4.60;89.10;;;;;;5281659;22;20238;-93
2022/12/27 16:10:41;;;;;;;17.17;9.70;;;4.50;89.60;;;;;;2932092;22;20611;-91
2022/12/27 16:13:10;;;;;;;20.43;9.83;;;4.50;89.70;;;;;;5021896;28;20178;-92
2022/12/27 16:15:56;;;;;;;14.43;9.03;;;4.40;89.90;;;;;;5016031;28;20237;-92
2022/12/27 16:18:21;;;;;;;15.57;9.40;;;4.40;90.00;;;;;;5020677;28;20201;-92
2022/12/27 16:21:18;;;;;;;12.60;9.40;;;4.50;90.00;;;;;;5023459;28;20178;-93
2022/12/27 16:26:34;;;;;;;17.33;9.53;;;4.30;90.30;;;;;;5107109;22;20244;-93
2022/12/27 16:34:24;;;;;;;13.80;10.60;;;4.30;90.40;;;;;;6089608;22;21324;-91
2022/12/27 16:37:17;;;;;;;10.57;9.10;;;4.20;90.60;;;;;;5015076;28;20185;-92
2022/12/27 16:40:23;;;;;;;18.47;11.17;;;4.20;90.80;;;;;;4940924;28;20202;-92
2022/12/27 16:45:38;;;;;;;17.30;11.60;;;4.10;90.80;;;;;;5052869;22;20274;-93
2022/12/27 16:48:04;;;;;;;18.00;10.20;;;4.10;90.90;;;;;;5027834;28;20167;-94
2022/12/27 16:50:46;;;;;;;16.17;10.47;;;4.10;91.00;;;;;;5026331;28;20217;-94
2022/12/27 16:53:35;;;;;;;16.97;10.70;;;4.00;91.00;;;;;;5028635;28;20170;-94
2022/12/27 16:56:24;;;;;;;19.03;12.13;;;4.00;91.20;;;;;;5028154;28;20193;-94
2022/12/27 16:58:53;;;;;;;29.23;10.67;;;4.00;91.20;;;;;;5029941;28;20167;-94
2022/12/27 17:01:25;;;;;;;15.27;10.57;;;4.00;91.30;;;;;;5030259;28;20173;-94
2022/12/27 17:09:19;;;;;;;31.93;11.77;;;4.00;91.40;;;;;;4997846;28;20269;-94
2022/12/27 17:11:51;;;;;;;19.20;11.73;;;4.00;91.30;;;;;;4984215;28;20207;-93
2022/12/27 17:14:24;;;;;;;19.30;12.27;;;4.00;91.40;;;;;;4998577;28;20639;-92
2022/12/27 17:16:54;;;;;;;21.27;12.80;;;3.90;91.50;;;;;;4981315;28;20651;-93
2022/12/27 17:19:32;;;;;;;18.60;12.13;;;3.90;91.50;;;;;;4985062;28;20179;-94
2022/12/27 17:22:02;;;;;;;20.60;13.53;;;3.80;91.60;;;;;;4988565;28;20174;-93
2022/12/27 17:24:29;;;;;;;21.87;13.30;;;3.80;91.70;;;;;;4986156;28;20623;-93
2022/12/27 17:27:05;;;;;;;20.93;13.03;;;3.70;91.80;;;;;;4983623;28;20209;-92
2022/12/27 17:30:00;;;;;;;24.33;13.70;;;3.70;91.90;;;;;;4981322;28;20178;-93
2022/12/27 17:32:35;;;;;;;27.77;13.70;;;3.70;91.90;;;;;;4979901;28;20180;-93
2022/12/27 17:35:39;;;;;;;17.47;14.50;;;3.60;92.00;;;;;;4980778;28;20189;-93
2022/12/27 17:38:26;;;;;;;23.27;14.00;;;3.60;92.10;;;;;;4980912;28;20170;-94
2022/12/27 17:44:51;;;;;;;16.97;13.67;;;3.50;92.40;;;;;;5000941;28;20274;-94
2022/12/27 17:47:41;;;;;;;17.17;15.10;;;3.60;92.50;;;;;;4992497;28;20175;-93
2022/12/27 17:50:14;;;;;;;28.63;14.67;;;3.60;92.60;;;;;;4997492;28;20179;-93
2022/12/27 17:58:17;;;;;;;17.40;13.27;;;4.00;92.30;;;;;;5011060;28;20189;-93
2022/12/27 18:01:12;;;;;;;21.73;14.43;;;4.10;92.10;;;;;;4995806;28;20175;-94
2022/12/27 18:03:43;;;;;;;17.80;14.53;;;4.20;92.10;;;;;;4987532;28;20611;-93
2022/12/27 18:06:10;;;;;;;24.50;15.93;;;4.30;92.00;;;;;;4983111;28;20199;-93
2022/12/27 18:08:36;;;;;;;28.43;18.03;;;4.30;92.00;;;;;;4983955;28;20193;-93
2022/12/27 18:11:04;;;;;;;29.03;18.07;;;4.30;91.90;;;;;;4981508;28;20283;-93
2022/12/27 18:13:38;;;;;;;21.93;15.97;;;4.30;91.90;;;;;;4983208;28;20197;-92
2022/12/27 18:16:32;;;;;;;25.43;16.80;;;4.40;91.80;;;;;;4980784;28;20250;-91
2022/12/27 18:18:59;;;;;;;28.57;18.03;;;4.50;91.60;;;;;;4982904;28;20167;-91
2022/12/27 18:21:30;;;;;;;23.10;17.57;;;4.50;91.60;;;;;;4979188;28;20583;-91
2022/12/27 18:23:59;;;;;;;29.55;20.63;;;4.60;91.70;;;;;;4977865;28;20483;-90
2022/12/27 18:26:35;;;;;;;30.70;21.20;;;4.50;91.60;;;;;;4979339;28;20184;-89
2022/12/27 18:29:01;;;;;;;34.87;24.43;;;4.50;91.60;;;;;;4978944;28;20275;-93
2022/12/27 18:31:48;;;;;;;21.93;16.23;;;4.50;91.60;;;;;;4979959;28;20281;-94
2022/12/27 18:34:25;;;;;;;22.03;17.90;;;4.60;91.60;;;;;;4977805;28;20194;-90
2022/12/27 18:37:01;;;;;;;23.50;19.43;;;4.60;91.70;;;;;;4979096;28;20160;-92
2022/12/27 18:39:33;;;;;;;23.97;20.00;;;4.60;91.70;;;;;;4980218;28;20161;-93
2022/12/27 18:42:15;;;;;;;19.13;17.00;;;4.70;91.70;;;;;;4979758;28;20196;-90
2022/12/27 18:44:49;;;;;;;24.83;19.10;;;4.70;91.70;;;;;;4978794;28;20289;-92
2022/12/27 18:47:20;;;;;;;28.77;21.37;;;4.70;91.60;;;;;;4980334;28;20255;-93
2022/12/27 18:49:58;;;;;;;24.10;18.97;;;4.60;91.70;;;;;;4978681;28;20177;-93
2022/12/27 18:52:33;;;;;;;27.10;20.63;;;4.60;91.70;;;;;;4978708;28;20175;-92
2022/12/27 18:55:13;;;;;;;30.33;21.67;;;4.50;91.80;;;;;;4979644;28;20680;-93
2022/12/27 18:57:39;;;;;;;30.40;22.47;;;4.50;91.90;;;;;;4978172;28;20426;-92
2022/12/27 19:00:26;;;;;;;29.37;22.57;;;4.50;91.90;;;;;;4978346;28;20202;-92
2022/12/27 19:02:53;;;;;;;32.37;22.57;;;4.50;92.00;;;;;;4979659;28;20174;-93
2022/12/27 19:05:18;;;;;;;27.67;20.60;;;4.50;92.00;;;;;;4979266;28;20213;-94
2022/12/27 19:07:51;;;;;;;34.27;24.50;;;4.50;92.10;;;;;;4981811;28;20232;-93
2022/12/27 19:10:20;;;;;;;30.23;23.50;;;4.50;92.00;;;;;;4979992;28;20189;-92
2022/12/27 19:12:46;;;;;;;34.57;23.70;;;4.50;92.10;;;;;;4977221;28;20185;-90
2022/12/27 19:15:39;;;;;;;26.87;22.73;;;4.50;92.20;;;;;;4977195;28;20207;-92
2022/12/27 19:18:14;;;;;;;33.30;24.53;;;4.50;92.20;;;;;;4978668;28;20179;-93
2022/12/27 19:20:40;;;;;;;36.53;24.40;;;4.40;92.30;;;;;;4981630;28;20192;-93
2022/12/27 19:23:24;;;;;;;27.70;23.43;;;4.50;92.30;;;;;;4978191;28;20200;-92
2022/12/27 19:26:05;;;;;;;26.33;22.10;;;4.40;92.30;;;;;;4977555;28;20212;-92
2022/12/27 19:28:31;;;;;;;28.43;22.90;;;4.40;92.30;;;;;;4977980;28;20271;-93
2022/12/27 19:31:03;;;;;;;30.50;21.40;;;4.40;92.30;;;;;;4978287;28;20212;-93
2022/12/27 19:33:31;;;;;;;27.43;21.00;;;4.40;92.50;;;;;;4977448;28;20214;-92
2022/12/27 19:35:58;;;;;;;22.43;18.10;;;4.40;92.50;;;;;;4979403;28;20223;-93
2022/12/27 19:38:28;;;;;;;28.30;20.40;;;4.40;92.40;;;;;;4980326;28;20256;-93
2022/12/27 19:40:57;;;;;;;28.80;20.43;;;4.40;92.40;;;;;;4977749;28;20172;-93
2022/12/27 19:43:29;;;;;;;31.10;23.60;;;4.50;92.50;;;;;;4977976;28;20191;-92
2022/12/27 19:45:55;;;;;;;25.27;21.43;;;4.50;92.40;;;;;;4978569;28;20202;-92
2022/12/27 19:48:21;;;;;;;27.50;21.40;;;4.50;92.50;;;;;;4979508;28;20179;-92
2022/12/27 19:50:52;;;;;;;30.97;23.67;;;4.50;92.50;;;;;;4981182;28;20267;-92
2022/12/27 19:53:21;;;;;;;26.13;20.43;;;4.50;92.50;;;;;;4981996;28;20235;-93
2022/12/27 19:55:47;;;;;;;28.13;23.33;;;4.50;92.50;;;;;;4980144;28;20202;-93
2022/12/27 19:58:24;;;;;;;26.47;17.67;;;4.50;92.40;;;;;;4978701;28;20179;-93
2022/12/27 20:00:50;;;;;;;19.67;17.70;;;4.50;92.40;;;;;;4979308;28;20188;-92
2022/12/27 20:03:15;;;;;;;25.00;19.50;;;4.60;92.40;;;;;;4978533;28;20215;-92
2022/12/27 20:05:42;;;;;;;23.13;20.03;;;4.50;92.30;;;;;;4978227;28;20215;-92
2022/12/27 20:08:38;;;;;;;23.37;19.33;;;4.40;92.30;;;;;;4979037;28;20200;-92
2022/12/27 20:11:06;;;;;;;20.87;17.37;;;4.40;92.30;;;;;;4992417;28;20218;-92
2022/12/27 20:13:32;;;;;;;23.97;20.40;;;4.30;92.40;;;;;;4981498;28;20178;-92
2022/12/27 20:15:59;;;;;;;24.47;17.73;;;4.30;92.50;;;;;;4981901;28;20198;-92
2022/12/27 20:18:25;;;;;;;28.57;23.20;;;4.20;92.60;;;;;;4981906;28;20639;-93
2022/12/27 20:20:51;;;;;;;29.03;24.33;;;4.20;92.70;;;;;;4981548;28;20187;-93
2022/12/27 20:23:18;;;;;;;24.93;21.10;;;4.20;92.70;;;;;;4980712;28;20264;-92
2022/12/27 20:25:46;;;;;;;32.10;22.60;;;4.10;92.70;;;;;;4981752;28;20293;-92
2022/12/27 20:28:13;;;;;;;25.73;18.83;;;4.10;92.90;;;;;;4981208;28;20200;-92
2022/12/27 20:30:40;;;;;;;29.10;20.90;;;4.10;93.00;;;;;;4982183;28;20203;-92
2022/12/27 20:33:06;;;;;;;30.23;20.10;;;4.10;92.90;;;;;;4981748;28;20173;-92
2022/12/27 20:35:32;;;;;;;29.73;21.30;;;4.00;93.10;;;;;;4982162;28;20685;-93
2022/12/27 20:37:58;;;;;;;23.73;19.37;;;4.00;93.00;;;;;;4984024;28;20179;-93
2022/12/27 20:40:24;;;;;;;24.77;20.60;;;4.00;93.10;;;;;;4982393;28;20215;-92
2022/12/27 20:42:49;;;;;;;26.50;21.63;;;4.00;93.20;;;;;;4981005;28;20257;-92
2022/12/27 20:45:16;;;;;;;27.87;21.13;;;4.00;93.10;;;;;;4982000;28;20630;-93
2022/12/27 20:47:41;;;;;;;27.93;21.10;;;3.90;93.20;;;;;;4982189;28;20186;-93
2022/12/27 20:50:08;;;;;;;22.40;16.47;;;3.90;93.30;;;;;;4982695;28;20558;-92
2022/12/27 20:52:37;;;;;;;28.70;19.47;;;3.90;93.40;;;;;;4982707;28;20175;-93
2022/12/27 20:55:04;;;;;;;29.97;19.60;;;3.90;93.30;;;;;;4983972;28;20570;-93
2022/12/27 20:57:30;;;;;;;29.73;20.27;;;3.90;93.40;;;;;;4988228;28;20176;-93
2022/12/27 20:59:56;;;;;;;25.83;20.23;;;3.90;93.50;;;;;;4985029;28;20182;-93
2022/12/27 21:02:21;;;;;;;33.30;24.33;;;3.90;93.50;;;;;;4982072;28;20194;-93
2022/12/27 21:04:47;;;;;;;32.43;22.33;;;4.10;93.60;;;;;;4982891;28;20205;-93
2022/12/27 21:07:15;;;;;;;16.73;15.00;;;4.20;93.30;;;;;;4986261;28;20184;-93
2022/12/27 21:09:41;;;;;;;34.33;23.13;;;4.10;93.20;;;;;;4986020;28;20232;-92
2022/12/27 21:12:06;;;;;;;24.17;19.63;;;4.20;93.20;;;;;;4982308;28;20208;-92
2022/12/27 21:14:32;;;;;;;26.90;19.33;;;4.20;93.20;;;;;;4986395;28;20182;-92
2022/12/27 21:16:58;;;;;;;24.63;19.87;;;4.30;93.20;;;;;;4984391;28;20651;-93
2022/12/27 21:19:24;;;;;;;25.57;19.97;;;4.30;93.20;;;;;;4986592;28;20218;-93
2022/12/27 21:21:58;;;;;;;21.47;16.63;;;4.30;93.20;;;;;;4996823;28;20224;-93
2022/12/27 21:24:24;;;;;;;23.23;20.30;;;4.30;93.10;;;;;;4990443;28;20209;-93
2022/12/27 21:26:49;;;;;;;30.10;20.53;;;4.30;93.10;;;;;;4986987;28;20207;-92
2022/12/27 21:29:18;;;;;;;18.40;16.53;;;4.30;93.10;;;;;;4980228;28;20185;-92
2022/12/27 21:31:44;;;;;;;26.27;21.07;;;4.40;93.00;;;;;;4980615;28;20206;-92
2022/12/27 21:34:09;;;;;;;24.07;17.43;;;4.40;93.00;;;;;;4980202;28;20711;-92
2022/12/27 21:36:37;;;;;;;29.87;21.93;;;4.40;93.00;;;;;;4979793;28;20231;-92
2022/12/27 21:39:03;;;;;;;25.90;20.43;;;4.40;92.90;;;;;;4982914;28;20174;-93
2022/12/27 21:41:32;;;;;;;18.90;16.93;;;4.50;92.80;;;;;;5002526;28;20178;-93
2022/12/27 21:43:57;;;;;;;27.07;19.47;;;4.60;92.80;;;;;;4982506;28;20187;-93
2022/12/27 21:46:25;;;;;;;31.00;20.97;;;4.50;92.90;;;;;;4985248;28;20702;-93
2022/12/27 21:48:59;;;;;;;28.53;19.77;;;4.50;93.10;;;;;;4984535;28;20235;-93
2022/12/27 21:51:25;;;;;;;25.77;21.30;;;4.50;93.20;;;;;;4989683;28;20234;-93
2022/12/27 21:53:52;;;;;;;23.07;19.80;;;4.60;93.20;;;;;;4983794;28;20181;-92
2022/12/27 21:56:17;;;;;;;23.27;17.73;;;4.60;93.20;;;;;;4985512;28;20665;-92
2022/12/27 21:58:44;;;;;;;19.70;17.43;;;4.60;93.20;;;;;;4986597;28;20190;-93
2022/12/27 22:01:16;;;;;;;29.60;20.63;;;4.60;93.20;;;;;;4987080;28;20192;-93
2022/12/27 22:03:44;;;;;;;26.50;21.77;;;4.60;93.20;;;;;;4985782;28;20186;-92
2022/12/27 22:06:12;;;;;;;23.40;20.77;;;4.60;93.10;;;;;;4980117;28;20303;-93
2022/12/27 22:08:38;;;;;;;35.43;23.23;;;4.60;93.20;;;;;;4979086;28;20280;-91
2022/12/27 22:11:04;;;;;;;34.37;20.67;;;4.70;93.10;;;;;;4979749;28;20660;-93
2022/12/27 22:13:30;;;;;;;29.17;24.37;;;4.80;92.90;;;;;;4979290;28;20236;-93
2022/12/27 22:15:57;;;;;;;27.77;23.53;;;4.70;92.90;;;;;;4979023;28;20215;-92
2022/12/27 22:18:23;;;;;;;30.83;23.97;;;4.80;93.00;;;;;;4979361;28;20184;-92
2022/12/27 22:20:49;;;;;;;33.53;24.50;;;4.80;92.90;;;;;;4978644;28;20192;-92
2022/12/27 22:23:15;;;;;;;18.23;16.33;;;4.80;92.80;;;;;;4979012;28;20179;-92
2022/12/27 22:25:42;;;;;;;26.37;21.33;;;4.80;92.80;;;;;;4979365;28;20251;-92
2022/12/27 22:28:07;;;;;;;25.03;19.63;;;4.90;92.70;;;;;;4979655;28;20193;-92
2022/12/27 22:30:37;;;;;;;21.97;18.20;;;5.00;92.30;;;;;;4981479;28;20214;-92
2022/12/27 22:33:06;;;;;;;25.43;20.70;;;5.00;92.30;;;;;;4980193;28;20216;-92
2022/12/27 22:35:32;;;;;;;29.73;22.47;;;5.10;92.20;;;;;;4981712;28;20231;-92
2022/12/27 22:37:58;;;;;;;28.17;22.57;;;5.00;92.10;;;;;;4982141;28;20182;-93
2022/12/27 22:40:24;;;;;;;32.27;23.37;;;5.10;92.20;;;;;;4980254;28;20185;-92
2022/12/27 22:42:49;;;;;;;26.60;22.33;;;5.10;92.10;;;;;;4981211;28;20181;-93
2022/12/27 22:45:15;;;;;;;24.70;19.50;;;5.20;92.00;;;;;;4998649;28;20227;-93
2022/12/27 22:47:41;;;;;;;23.27;19.23;;;5.20;92.00;;;;;;4983823;28;20216;-92
2022/12/27 22:50:06;;;;;;;22.27;19.87;;;5.30;91.70;;;;;;4982733;28;20180;-93
2022/12/27 22:52:32;;;;;;;23.23;20.70;;;5.30;91.50;;;;;;5000237;28;20209;-93
2022/12/27 22:54:58;;;;;;;24.70;21.47;;;5.30;91.50;;;;;;4981002;28;20581;-94
2022/12/27 22:57:23;;;;;;;21.87;18.10;;;5.30;91.40;;;;;;4984976;28;20181;-92
2022/12/27 22:59:49;;;;;;;26.98;21.50;;;5.40;91.20;;;;;;4980235;28;20428;-94
2022/12/27 23:02:14;;;;;;;25.53;18.43;;;5.50;91.00;;;;;;4980909;28;20182;-93
2022/12/27 23:04:40;;;;;;;24.23;19.77;;;5.50;91.10;;;;;;4979617;28;20193;-93
2022/12/27 23:07:06;;;;;;;20.90;18.70;;;5.50;90.90;;;;;;4978747;28;20284;-92
2022/12/27 23:09:32;;;;;;;20.03;15.23;;;5.50;90.90;;;;;;4978640;28;20667;-93
2022/12/27 23:11:58;;;;;;;26.77;18.90;;;5.60;90.80;;;;;;4980846;28;20197;-93
2022/12/27 23:14:30;;;;;;;17.37;15.50;;;5.60;90.60;;;;;;4980959;28;20212;-94
2022/12/27 23:16:55;;;;;;;17.37;15.53;;;5.50;90.70;;;;;;4980944;28;20178;-93
2022/12/27 23:19:25;;;;;;;21.13;16.17;;;5.60;90.50;;;;;;4979833;28;20232;-93
2022/12/27 23:21:50;;;;;;;18.07;14.60;;;5.60;90.30;;;;;;4978728;28;20237;-93
2022/12/27 23:24:16;;;;;;;19.00;14.03;;;5.70;89.90;;;;;;4979890;28;20202;-93
2022/12/27 23:26:42;;;;;;;21.17;15.83;;;5.70;90.10;;;;;;4979893;28;20189;-94
2022/12/27 23:29:10;;;;;;;14.47;13.03;;;5.60;90.10;;;;;;4981615;28;20664;-93
2022/12/27 23:31:35;;;;;;;22.77;14.23;;;5.60;90.20;;;;;;4981214;28;20587;-93
2022/12/27 23:34:03;;;;;;;16.27;14.07;;;5.60;90.00;;;;;;4980534;28;20173;-93
2022/12/27 23:36:32;;;;;;;16.73;12.33;;;5.50;90.10;;;;;;4996886;28;20177;-93
2022/12/27 23:38:58;;;;;;;17.17;13.70;;;5.50;90.10;;;;;;4982189;28;20205;-93
2022/12/27 23:41:24;;;;;;;15.03;13.17;;;5.60;90.00;;;;;;4979577;28;20186;-93
2022/12/27 23:43:51;;;;;;;14.53;12.03;;;5.50;90.00;;;;;;4979866;28;20249;-93
2022/12/27 23:46:22;;;;;;;20.30;13.93;;;5.50;90.00;;;;;;4979056;28;20193;-94
2022/12/27 23:48:48;;;;;;;18.53;13.10;;;5.50;89.80;;;;;;4980128;28;20554;-93
2022/12/27 23:51:21;;;;;;;16.77;12.33;;;5.50;89.70;;;;;;4982893;28;20228;-94
2022/12/27 23:53:46;;;;;;;13.53;12.13;;;5.60;89.40;;;;;;4979792;28;20197;-93
2022/12/27 23:59:27;;;;;;;12.00;10.80;;;5.50;89.40;;;;;;5007365;28;20166;-94
